MGGT

La Aurora Airport

Guatemala City, Guatemala
MGGT 211700Z 2118/2218 36016KT 9999 SCT018 SCT090 TX26/2120Z TN17/2212Z PROB40 TEMPO 2120/2203 04012KT 8000 TSRA SCT020TCU FEW025CB BECMG 2201/2203 BKN014 PROB30 TEMPO 2203/2212 02012KT 8000 DZ BKN012 BECMG 2215/2217 FEW018
Issued Valid From Valid To
Jul-21 @ 17:00 UTC
(6 hours ago)
Jul-21 @ 18:00 UTC
(5 hours ago)
Jul-22 @ 18:00 UTC
(in 19 hours)
Jul-21 @ 18:00 to Jul-22 @ 01:00
MGGT 211700Z 2118/2218 36016KT 9999 SCT018 SCT090 TX26/2120Z TN17/2212Z
Wind Visibility Clouds
360° at 16 knots 10,000+ meters
  • Scattered at 1,800' AGL
  • Scattered at 9,000' AGL
Temporary  (Probability 40%) Jul-21 @ 20:00 to Jul-22 @ 03:00
PROB40 TEMPO 2120/2203 04012KT 8000 TSRA SCT020TCU FEW025CB
Wind Visibility Clouds Conditions
40° at 12 knots 7,998 meters
  • Scattered at 2,000' AGL
  • Few at 2,500' AGL
  • Thunderstorm
  • Rain
Becoming Jul-22 @ 01:00 to Jul-22 @ 15:00
BECMG 2201/2203 BKN014
Wind Visibility Clouds
360° at 16 knots 10,000+ meters
  • Broken at 1,400' AGL
Temporary  (Probability 30%) Jul-22 @ 03:00 to Jul-22 @ 12:00
PROB30 TEMPO 2203/2212 02012KT 8000 DZ BKN012
Wind Visibility Clouds Conditions
20° at 12 knots 7,998 meters
  • Broken at 1,200' AGL
  • Drizzle
Becoming Jul-22 @ 15:00 to Jul-22 @ 18:00
BECMG 2215/2217 FEW018
Wind Visibility Clouds
360° at 16 knots 10,000+ meters
  • Few at 1,800' AGL
MGGT 211700Z 2118/2218 36016KT 9999 SCT018 SCT090 TX26/2120Z TN17/2212Z PROB40 TEMPO 2120/2203 04012KT 8000 TSRA SCT020TCU FEW025CB BECMG 2201/2203 BKN014 PROB30 TEMPO 2203/2212 02012KT 8000 DZ BKN012 BECMG 2215/2217 FEW018
Issued Jul-21 @ 17:00 UTC
(6 hours ago)
Valid From Jul-21 @ 18:00 UTC
(5 hours ago)
Valid To Jul-22 @ 18:00 UTC
(in 19 hours)
Jul-21 @ 18:00 - Jul-22 @ 01:00
Wind Visibility
360° at 16 knots 10,000+ meters
Clouds
  • Scattered at 1,800' AGL
  • Scattered at 9,000' AGL
Probability 40% Temporary Jul-21 @ 20:00 - Jul-22 @ 03:00
Wind Visibility
40° at 12 knots 7,998 meters
Clouds
  • Scattered at 2,000' AGL
  • Few at 2,500' AGL
Conditions
  • Thunderstorm
  • Rain
Becoming Jul-22 @ 01:00 - Jul-22 @ 15:00
Wind Visibility
360° at 16 knots 10,000+ meters
Clouds
  • Broken at 1,400' AGL
Probability 30% Temporary Jul-22 @ 03:00 - Jul-22 @ 12:00
Wind Visibility
20° at 12 knots 7,998 meters
Clouds
  • Broken at 1,200' AGL
Conditions
  • Drizzle
Becoming Jul-22 @ 15:00 - Jul-22 @ 18:00
Wind Visibility
360° at 16 knots 10,000+ meters
Clouds
  • Few at 1,800' AGL